createdAt,value
2019-02-28T00:01:31.327Z,21.42
2019-02-28T00:06:34.796Z,21.40
2019-02-28T00:11:39.457Z,21.40
2019-02-28T00:16:43.606Z,21.38
2019-02-28T00:21:47.069Z,21.39
2019-02-28T00:26:50.529Z,21.29
2019-02-28T00:31:53.989Z,21.29
2019-02-28T00:36:57.457Z,21.37
2019-02-28T00:42:00.924Z,21.39
2019-02-28T00:47:04.549Z,21.38
2019-02-28T00:52:08.010Z,21.37
2019-02-28T00:57:11.469Z,21.37
2019-02-28T01:02:17.639Z,21.37
2019-02-28T01:07:20.191Z,21.38
2019-02-28T01:12:23.648Z,21.36
2019-02-28T01:17:27.452Z,21.36
2019-02-28T01:22:30.945Z,21.35
2019-02-28T01:27:34.404Z,21.35
2019-02-28T01:32:38.233Z,21.34
2019-02-28T01:37:41.694Z,21.33
2019-02-28T01:42:45.152Z,21.33
2019-02-28T01:47:51.693Z,21.30
2019-02-28T01:52:53.797Z,21.31
2019-02-28T01:57:57.268Z,21.30
2019-02-28T02:03:00.726Z,21.29
2019-02-28T02:08:07.310Z,21.29
2019-02-28T02:13:09.373Z,21.28
2019-02-28T02:18:12.841Z,21.27
2019-02-28T02:23:18.065Z,21.27
2019-02-28T02:28:26.818Z,21.26
2019-02-28T02:33:26.666Z,21.25
2019-02-28T02:38:30.128Z,21.24
2019-02-28T02:43:33.595Z,21.25
2019-02-28T02:48:38.551Z,21.23
2019-02-28T02:53:43.389Z,21.24
2019-02-28T02:58:46.979Z,21.24
2019-02-28T03:03:50.446Z,21.22
2019-02-28T03:08:53.889Z,21.22
2019-02-28T03:13:57.345Z,21.21
2019-02-28T03:19:00.803Z,21.21
2019-02-28T03:24:04.260Z,21.20
2019-02-28T03:29:08.933Z,21.19
2019-02-28T03:34:14.108Z,21.20
2019-02-28T03:39:24.111Z,21.19
2019-02-28T03:44:22.989Z,21.19
2019-02-28T03:49:26.452Z,21.19
2019-02-28T03:54:30.262Z,21.18
2019-02-28T03:59:33.686Z,21.17
2019-02-28T04:04:37.142Z,21.17
2019-02-28T04:09:44.146Z,21.10
2019-02-28T04:14:45.777Z,21.17
2019-02-28T04:19:49.235Z,21.17
2019-02-28T04:24:52.696Z,21.16
2019-02-28T04:29:56.144Z,21.16
2019-02-28T04:34:59.599Z,21.15
2019-02-28T04:40:03.139Z,21.15
2019-02-28T04:45:11.835Z,21.16
2019-02-28T04:50:15.295Z,21.16
2019-02-28T04:55:18.755Z,21.17
2019-02-28T05:00:22.208Z,21.18
2019-02-28T05:05:25.745Z,21.16
2019-02-28T05:10:29.200Z,21.16
2019-02-28T05:15:37.337Z,21.14
2019-02-28T05:20:37.846Z,21.15
2019-02-28T05:25:41.321Z,21.13
2019-02-28T05:30:44.775Z,21.14
2019-02-28T05:35:48.244Z,21.13
2019-02-28T05:40:51.698Z,21.13
2019-02-28T05:45:55.164Z,21.12
2019-02-28T05:50:58.620Z,21.12
2019-02-28T05:56:02.084Z,21.11
2019-02-28T06:01:05.681Z,21.10
2019-02-28T06:06:09.147Z,21.10
2019-02-28T06:11:12.615Z,21.08
2019-02-28T06:16:16.066Z,21.10
2019-02-28T06:21:19.529Z,21.09
2019-02-28T06:26:22.986Z,21.08
2019-02-28T06:31:26.443Z,21.08
2019-02-28T06:36:29.969Z,21.08
2019-02-28T06:41:33.434Z,21.07
2019-02-28T06:46:39.866Z,21.07
2019-02-28T06:51:42.075Z,21.08
2019-02-28T06:56:45.538Z,21.07
2019-02-28T07:01:48.998Z,21.07
2019-02-28T07:06:52.459Z,21.06
2019-02-28T07:11:55.917Z,21.07
2019-02-28T07:16:59.378Z,21.07
2019-02-28T07:22:02.843Z,21.07
2019-02-28T07:27:06.301Z,21.08
2019-02-28T07:32:09.759Z,21.13
2019-02-28T07:37:13.213Z,21.17
2019-02-28T07:42:16.674Z,21.21
2019-02-28T07:47:20.123Z,21.23
2019-02-28T07:52:23.585Z,21.25
2019-02-28T07:57:27.046Z,21.29
2019-02-28T08:02:30.500Z,21.30
2019-02-28T08:07:33.980Z,21.33
2019-02-28T08:12:37.420Z,21.34
2019-02-28T08:17:43.864Z,21.35
2019-02-28T08:22:46.067Z,21.24
2019-02-28T08:27:49.600Z,19.71
2019-02-28T08:32:53.072Z,18.88
2019-02-28T08:37:57.384Z,19.42
2019-02-28T08:43:00.988Z,19.91
2019-02-28T08:48:04.437Z,20.13
2019-02-28T08:53:07.901Z,20.23
2019-02-28T08:58:11.360Z,20.37
2019-02-28T09:03:14.825Z,20.45
2019-02-28T09:08:18.281Z,20.51
2019-02-28T09:13:21.740Z,20.55
2019-02-28T09:18:25.209Z,20.58
2019-02-28T09:23:28.737Z,20.62
2019-02-28T09:28:32.191Z,20.66
2019-02-28T09:33:35.653Z,20.71
2019-02-28T09:38:39.116Z,20.75
2019-02-28T09:43:42.568Z,20.78
2019-02-28T09:48:46.033Z,20.81
2019-02-28T09:53:50.282Z,20.84
2019-02-28T09:58:54.429Z,20.87
2019-02-28T10:03:57.895Z,20.87
2019-02-28T10:09:01.361Z,20.87
2019-02-28T10:14:07.609Z,20.89
2019-02-28T10:19:13.392Z,20.91
2019-02-28T10:24:16.253Z,20.94
2019-02-28T10:29:19.708Z,20.95
2019-02-28T10:34:23.410Z,20.96
2019-02-28T10:39:28.365Z,20.98
2019-02-28T10:44:31.821Z,21.01
2019-02-28T10:49:35.283Z,20.99
2019-02-28T10:54:38.740Z,21.03
2019-02-28T10:59:42.196Z,21.08
2019-02-28T11:04:45.652Z,21.13
2019-02-28T11:09:49.495Z,21.17
2019-02-28T11:14:52.965Z,21.19
2019-02-28T11:19:56.421Z,21.20
2019-02-28T11:25:00.940Z,21.20
2019-02-28T11:30:17.894Z,21.22
2019-02-28T11:35:23.161Z,21.24
2019-02-28T11:40:29.217Z,21.25
2019-02-28T11:45:37.147Z,21.30
2019-02-28T11:50:42.606Z,21.32
2019-02-28T11:55:45.863Z,21.33
2019-02-28T12:00:49.328Z,21.34
2019-02-28T12:05:52.874Z,21.36
2019-02-28T12:10:58.453Z,21.35
2019-02-28T12:16:01.526Z,21.37
2019-02-28T12:21:05.156Z,21.37
2019-02-28T12:26:08.618Z,21.36
2019-02-28T12:31:12.560Z,21.39
2019-02-28T12:36:16.008Z,21.40
2019-02-28T12:41:21.723Z,21.42
2019-02-28T12:46:24.716Z,21.41
2019-02-28T12:51:28.245Z,21.43
2019-02-28T12:56:31.705Z,21.44
2019-02-28T13:01:35.166Z,21.44
2019-02-28T13:06:38.628Z,21.44
2019-02-28T13:11:42.087Z,21.46
2019-02-28T13:16:45.543Z,21.47
2019-02-28T13:21:49.010Z,21.49
2019-02-28T13:26:52.481Z,21.49
2019-02-28T13:31:57.716Z,21.49
2019-02-28T13:37:03.176Z,21.50
2019-02-28T13:42:06.433Z,21.51
2019-02-28T13:47:10.822Z,21.51
2019-02-28T13:52:18.886Z,21.52
2019-02-28T13:57:19.753Z,21.54
2019-02-28T14:02:26.314Z,21.54
2019-02-28T14:07:30.206Z,21.54
2019-02-28T14:12:33.629Z,21.56
2019-02-28T14:17:37.278Z,21.55
2019-02-28T14:22:42.746Z,21.52
2019-02-28T14:27:45.958Z,21.49
2019-02-28T14:32:49.434Z,21.50
2019-02-28T14:37:55.893Z,21.52
2019-02-28T14:42:58.105Z,21.50
2019-02-28T14:48:04.363Z,21.60
2019-02-28T14:53:06.862Z,21.57
2019-02-28T14:58:10.340Z,21.64
2019-02-28T15:03:14.879Z,21.65
2019-02-28T15:08:18.559Z,21.65
2019-02-28T15:13:22.102Z,21.65
2019-02-28T15:18:25.951Z,21.64
2019-02-28T15:23:30.794Z,21.66
2019-02-28T15:28:34.639Z,21.68
2019-02-28T15:33:38.117Z,21.67
2019-02-28T15:38:41.867Z,21.67
2019-02-28T15:43:47.171Z,21.59
2019-02-28T15:48:50.650Z,21.59
2019-02-28T15:53:54.133Z,21.67
2019-02-28T15:58:57.604Z,21.65
2019-02-28T16:04:01.086Z,21.66
2019-02-28T16:09:06.592Z,21.65
2019-02-28T16:14:14.505Z,21.65
2019-02-28T16:19:15.270Z,21.65
2019-02-28T16:24:18.743Z,21.64
2019-02-28T16:29:22.216Z,21.62
2019-02-28T16:34:25.688Z,21.61
2019-02-28T16:39:29.160Z,21.61
2019-02-28T16:44:32.642Z,21.61
2019-02-28T16:49:36.118Z,21.61
2019-02-28T16:54:39.593Z,21.58
2019-02-28T16:59:43.077Z,21.60
2019-02-28T17:04:48.644Z,21.69
2019-02-28T17:09:51.754Z,21.78
2019-02-28T17:14:55.238Z,21.84
2019-02-28T17:19:58.728Z,21.76
2019-02-28T17:25:02.213Z,21.78
2019-02-28T17:30:10.741Z,21.75
2019-02-28T17:35:14.473Z,21.75
2019-02-28T17:40:17.934Z,21.74
2019-02-28T17:45:23.835Z,21.78
2019-02-28T17:50:39.371Z,21.80
2019-02-28T17:55:47.128Z,21.80
2019-02-28T18:01:13.259Z,21.78
2019-02-28T18:06:34.564Z,21.77
2019-02-28T18:11:43.881Z,21.77
2019-02-28T18:17:08.297Z,21.78
2019-02-28T18:22:29.893Z,21.77
2019-02-28T18:27:43.707Z,21.78
2019-02-28T18:32:47.676Z,21.76
2019-02-28T18:37:51.212Z,21.75
2019-02-28T18:42:54.679Z,21.76
2019-02-28T18:47:58.141Z,21.77
2019-02-28T18:53:01.600Z,21.78
2019-02-28T18:58:05.201Z,21.77
2019-02-28T19:03:08.672Z,21.77
2019-02-28T19:08:13.671Z,21.78
2019-02-28T19:13:17.135Z,21.77
2019-02-28T19:18:20.607Z,21.77
2019-02-28T19:23:24.084Z,21.78
2019-02-28T19:28:27.565Z,21.78
2019-02-28T19:33:31.042Z,21.77
2019-02-28T19:38:34.501Z,21.78
2019-02-28T19:43:37.961Z,21.78
2019-02-28T19:48:41.426Z,21.76
2019-02-28T19:53:44.890Z,21.75
2019-02-28T19:58:48.350Z,21.75
2019-02-28T20:03:51.811Z,21.76
2019-02-28T20:08:55.271Z,21.76
2019-02-28T20:13:58.726Z,21.75
2019-02-28T20:19:02.353Z,21.73
2019-02-28T20:24:07.539Z,21.75
2019-02-28T20:29:11.001Z,21.74
2019-02-28T20:34:14.456Z,21.74
2019-02-28T20:39:17.911Z,21.73
2019-02-28T20:44:21.382Z,21.72
2019-02-28T20:49:24.843Z,21.71
2019-02-28T20:54:28.300Z,21.70
2019-02-28T20:59:31.770Z,21.70
2019-02-28T21:04:36.322Z,21.69
2019-02-28T21:09:45.008Z,21.68
2019-02-28T21:14:45.044Z,21.68
2019-02-28T21:19:48.499Z,21.67
2019-02-28T21:24:51.956Z,21.66
2019-02-28T21:29:55.418Z,21.66
2019-02-28T21:34:58.877Z,21.65
2019-02-28T21:40:02.341Z,21.63
2019-02-28T21:45:09.164Z,21.64
2019-02-28T21:50:15.037Z,21.62
2019-02-28T21:55:18.659Z,21.63
2019-02-28T22:00:24.798Z,21.62
2019-02-28T22:05:28.257Z,21.61
2019-02-28T22:10:31.718Z,21.59
2019-02-28T22:15:35.197Z,21.60
2019-02-28T22:20:38.664Z,21.59
2019-02-28T22:25:42.122Z,21.58
2019-02-28T22:30:47.221Z,21.59
2019-02-28T22:36:10.318Z,21.58
2019-02-28T22:41:13.773Z,21.57
2019-02-28T22:46:17.599Z,21.57
2019-02-28T22:51:21.066Z,21.57
2019-02-28T22:56:24.512Z,21.56
2019-02-28T23:01:28.411Z,21.56
2019-02-28T23:06:31.865Z,21.57
2019-02-28T23:11:35.325Z,21.55
2019-02-28T23:16:38.785Z,21.55
2019-02-28T23:21:42.246Z,21.55
2019-02-28T23:27:15.292Z,21.55
2019-02-28T23:32:27.567Z,21.55
2019-02-28T23:37:31.026Z,21.55
2019-02-28T23:42:34.479Z,21.54
2019-02-28T23:47:37.943Z,21.54
2019-02-28T23:52:41.397Z,21.53
2019-02-28T23:57:44.852Z,21.50
